Main page
METAR-TAF:

METAR-TAF

Airports :

Exeter Airport

Exeter, England

latitude: 50-44N, longitude: 003-25W, elevation: 30 m

Current weather observation

The report was made 17 minutes ago, at 09:50 UTC
Wind 7 kt from the North/Northwest
Temperature 11°C
Humidity 66%
Pressure 1032 hPa
Visibility 10 km or more
Few clouds at a height of 4500 ft

METAR: EGTE 240950Z 34007KT 9999 FEW045 11/05 Q1032

Time: 10:07 (10:07 UTC)

Forecast

The report was made 2 hours and 8 minutes ago, at 07:59 UTC
Forecast valid from 24 at 09 UTC to 24 at 18 UTC
Wind 5 kt from the West/Northwest
Visibility 10 km or more
Few clouds at a height of 4500 ft

TAF: EGTE 240759Z 2409/2418 30005KT 9999 FEW045

Weather observations and forecasts of more than 4000 airports (METAR and TAF reports).

The available stations are represented by yellow and red dots on the map.

Hover mouse over dot to see the name of the station.

Then click to see weather observations and forecasts.

To change the map : click on the green buttons with a black cross to zoom in, on the green button with a dash to zoom out, or on the green arrows for adjacent maps.


METAR-TAF: